createdAt,value
2018-06-19T00:00:40.887Z,96.20
2018-06-19T00:03:09.398Z,96.20
2018-06-19T00:05:37.966Z,96.50
2018-06-19T00:08:06.430Z,96.40
2018-06-19T00:10:35.007Z,96.50
2018-06-19T00:13:04.261Z,96.40
2018-06-19T00:15:32.729Z,96.50
2018-06-19T00:18:21.842Z,96.60
2018-06-19T00:20:51.263Z,96.60
2018-06-19T00:23:19.751Z,96.70
2018-06-19T00:25:48.223Z,96.80
2018-06-19T00:28:16.732Z,96.90
2018-06-19T00:30:45.157Z,96.90
2018-06-19T00:33:13.641Z,97.20
2018-06-19T00:35:42.136Z,97.10
2018-06-19T00:38:10.652Z,97.00
2018-06-19T00:40:39.096Z,97.00
2018-06-19T00:43:07.610Z,96.70
2018-06-19T00:45:36.086Z,96.50
2018-06-19T00:48:04.683Z,96.10
2018-06-19T00:50:33.216Z,95.70
2018-06-19T00:53:01.806Z,95.20
2018-06-19T00:55:30.282Z,95.00
2018-06-19T00:57:58.901Z,94.50
2018-06-19T01:00:27.442Z,94.30
2018-06-19T01:02:55.982Z,93.90
2018-06-19T01:05:24.485Z,93.90
2018-06-19T01:07:53.524Z,93.50
2018-06-19T01:10:21.991Z,93.10
2018-06-19T01:12:51.236Z,92.90
2018-06-19T01:15:19.710Z,92.80
2018-06-19T01:17:48.281Z,92.80
2018-06-19T01:20:16.796Z,92.70
2018-06-19T01:22:45.379Z,92.80
2018-06-19T01:25:13.841Z,92.80
2018-06-19T01:27:42.330Z,92.80
2018-06-19T01:30:10.802Z,92.90
2018-06-19T01:32:39.299Z,92.90
2018-06-19T01:35:07.912Z,92.90
2018-06-19T01:37:36.373Z,93.00
2018-06-19T01:40:05.587Z,93.10
2018-06-19T01:42:34.064Z,93.20
2018-06-19T01:45:02.610Z,93.20
2018-06-19T01:47:31.052Z,93.40
2018-06-19T01:49:59.566Z,93.40
2018-06-19T01:52:28.068Z,93.40
2018-06-19T01:54:56.655Z,93.40
2018-06-19T01:57:25.153Z,93.40
2018-06-19T01:59:53.689Z,93.40
2018-06-19T02:02:22.201Z,93.40
2018-06-19T02:04:50.747Z,93.40
2018-06-19T02:07:19.243Z,93.40
2018-06-19T02:09:47.686Z,93.20
2018-06-19T02:12:16.233Z,93.20
2018-06-19T02:14:44.796Z,93.10
2018-06-19T02:17:13.389Z,92.90
2018-06-19T02:19:41.984Z,93.00
2018-06-19T02:22:10.480Z,92.90
2018-06-19T02:24:39.186Z,92.70
2018-06-19T02:27:07.751Z,92.70
2018-06-19T02:29:36.296Z,92.70
2018-06-19T02:32:04.881Z,92.80
2018-06-19T02:34:33.360Z,92.60
2018-06-19T02:37:01.875Z,92.50
2018-06-19T02:39:30.366Z,92.50
2018-06-19T02:41:58.844Z,92.40
2018-06-19T02:44:27.349Z,92.30
2018-06-19T02:46:55.809Z,92.20
2018-06-19T02:49:24.445Z,92.30
2018-06-19T02:51:52.888Z,92.20
2018-06-19T02:54:21.368Z,92.40
2018-06-19T02:56:49.853Z,92.20
2018-06-19T02:59:21.303Z,92.10
2018-06-19T03:01:49.838Z,92.00
2018-06-19T03:04:19.095Z,92.10
2018-06-19T03:06:47.630Z,92.00
2018-06-19T03:09:16.209Z,92.30
2018-06-19T03:11:44.760Z,92.10
2018-06-19T03:14:13.392Z,92.10
2018-06-19T03:16:41.926Z,92.00
2018-06-19T03:19:10.435Z,92.00
2018-06-19T03:21:39.022Z,91.90
2018-06-19T03:24:08.101Z,91.90
2018-06-19T03:26:36.545Z,91.70
2018-06-19T03:29:05.009Z,91.60
2018-06-19T03:31:34.191Z,91.60
2018-06-19T03:34:02.713Z,91.50
2018-06-19T03:36:31.225Z,91.30
2018-06-19T03:38:59.768Z,91.40
2018-06-19T03:41:28.281Z,91.40
2018-06-19T03:43:57.669Z,91.40
2018-06-19T03:46:26.180Z,91.40
2018-06-19T03:48:54.778Z,91.30
2018-06-19T03:51:24.099Z,91.30
2018-06-19T03:53:52.562Z,91.20
2018-06-19T03:56:21.066Z,91.20
2018-06-19T03:58:49.551Z,91.20
2018-06-19T04:01:18.106Z,91.20
2018-06-19T04:03:46.584Z,91.20
2018-06-19T04:06:15.048Z,91.30
2018-06-19T04:08:44.264Z,91.10
2018-06-19T04:11:12.735Z,91.10
2018-06-19T04:13:41.237Z,91.00
2018-06-19T04:16:09.781Z,91.10
2018-06-19T04:18:38.269Z,91.00
2018-06-19T04:21:06.734Z,91.20
2018-06-19T04:23:35.330Z,91.10
2018-06-19T04:26:03.885Z,90.80
2018-06-19T04:28:32.395Z,90.80
2018-06-19T04:31:00.864Z,91.00
2018-06-19T04:33:29.419Z,90.70
2018-06-19T04:35:58.377Z,90.70
2018-06-19T04:38:26.866Z,90.60
2018-06-19T04:40:55.318Z,90.50
2018-06-19T04:43:23.788Z,90.50
2018-06-19T04:45:52.307Z,90.60
2018-06-19T04:48:21.410Z,90.50
2018-06-19T04:50:49.861Z,90.60
2018-06-19T04:53:18.334Z,90.60
2018-06-19T04:55:46.805Z,90.50
2018-06-19T04:58:15.513Z,90.30
2018-06-19T05:00:44.007Z,90.10
2018-06-19T05:03:12.529Z,90.00
2018-06-19T05:05:41.019Z,90.00
2018-06-19T05:08:09.555Z,90.00
2018-06-19T05:10:38.068Z,90.00
2018-06-19T05:13:06.545Z,89.50
2018-06-19T05:15:35.044Z,89.50
2018-06-19T05:18:03.536Z,89.70
2018-06-19T05:20:31.987Z,89.50
2018-06-19T05:23:00.517Z,89.20
2018-06-19T05:25:29.018Z,89.50
2018-06-19T05:27:57.482Z,88.70
2018-06-19T05:30:26.076Z,88.80
2018-06-19T05:32:55.169Z,88.50
2018-06-19T05:35:23.697Z,88.20
2018-06-19T05:37:52.182Z,88.60
2018-06-19T05:40:20.732Z,88.90
2018-06-19T05:42:49.568Z,88.70
2018-06-19T05:45:18.117Z,88.50
2018-06-19T05:47:47.368Z,89.20
2018-06-19T05:50:15.992Z,88.40
2018-06-19T05:52:44.531Z,88.40
2018-06-19T05:55:13.095Z,88.90
2018-06-19T05:57:41.565Z,88.60
2018-06-19T06:00:10.553Z,88.20
2018-06-19T06:02:38.986Z,89.00
2018-06-19T06:05:07.508Z,88.60
2018-06-19T06:07:36.014Z,89.30
2018-06-19T06:10:04.574Z,88.50
2018-06-19T06:12:33.278Z,88.10
2018-06-19T06:15:01.820Z,88.60
2018-06-19T06:17:30.290Z,88.40
2018-06-19T06:19:58.738Z,88.60
2018-06-19T06:22:27.367Z,89.00
2018-06-19T06:24:55.856Z,89.20
2018-06-19T06:27:24.374Z,89.50
2018-06-19T06:29:52.836Z,88.90
2018-06-19T06:32:21.335Z,88.80
2018-06-19T06:34:49.883Z,88.50
2018-06-19T06:37:18.440Z,87.80
2018-06-19T06:39:46.978Z,87.30
2018-06-19T06:42:15.455Z,87.00
2018-06-19T06:44:44.113Z,86.40
2018-06-19T06:47:12.588Z,85.70
2018-06-19T06:49:41.182Z,84.80
2018-06-19T06:52:09.675Z,84.00
2018-06-19T06:54:39.019Z,83.50
2018-06-19T06:57:07.514Z,82.50
2018-06-19T06:59:37.665Z,82.40
2018-06-19T07:02:06.179Z,82.30
2018-06-19T07:04:34.706Z,82.00
2018-06-19T07:07:03.173Z,82.00
2018-06-19T07:09:31.663Z,81.60
2018-06-19T07:12:00.231Z,81.20
2018-06-19T07:14:28.769Z,80.60
2018-06-19T07:16:57.292Z,80.00
2018-06-19T07:19:25.833Z,80.10
2018-06-19T07:21:54.407Z,79.00
2018-06-19T07:24:22.935Z,78.40
2018-06-19T07:26:51.481Z,77.70
2018-06-19T07:29:20.032Z,77.60
2018-06-19T07:31:48.653Z,77.00
2018-06-19T07:34:17.248Z,76.40
2018-06-19T07:36:45.970Z,76.50
2018-06-19T07:39:15.303Z,76.90
2018-06-19T07:41:43.936Z,76.70
2018-06-19T07:44:12.508Z,76.90
2018-06-19T07:46:41.048Z,76.70
2018-06-19T07:49:09.558Z,76.20
2018-06-19T07:51:38.083Z,76.40
2018-06-19T07:54:07.388Z,76.20
2018-06-19T07:56:35.882Z,76.60
2018-06-19T07:59:04.591Z,76.60
2018-06-19T08:01:33.086Z,77.00
2018-06-19T08:04:01.607Z,77.70
2018-06-19T08:06:30.200Z,78.20
2018-06-19T08:08:58.752Z,78.80
2018-06-19T08:11:27.867Z,78.70
2018-06-19T08:13:56.402Z,79.20
2018-06-19T08:16:24.974Z,80.20
2018-06-19T08:18:53.781Z,81.00
2018-06-19T08:21:22.446Z,81.80
2018-06-19T08:23:51.688Z,82.10
2018-06-19T08:26:20.252Z,81.50
2018-06-19T08:28:49.975Z,82.30
2018-06-19T08:31:18.811Z,82.90
2018-06-19T08:33:51.085Z,82.40
2018-06-19T08:36:19.951Z,81.40
2018-06-19T08:38:48.636Z,81.90
2018-06-19T08:41:19.218Z,82.30
2018-06-19T08:43:48.105Z,83.90
2018-06-19T08:46:16.939Z,83.70
2018-06-19T08:48:46.285Z,81.70
2018-06-19T08:51:15.461Z,83.00
2018-06-19T08:53:44.337Z,83.60
2018-06-19T08:56:13.229Z,82.40
2018-06-19T08:58:41.962Z,80.50
2018-06-19T09:01:10.737Z,78.00
2018-06-19T09:03:39.569Z,76.30
2018-06-19T09:06:08.352Z,75.10
2018-06-19T09:08:37.140Z,73.50
2018-06-19T09:11:06.155Z,72.70
2018-06-19T09:13:34.985Z,71.90
2018-06-19T09:16:03.865Z,71.40
2018-06-19T09:18:32.605Z,71.60
2018-06-19T09:21:01.383Z,71.60
2018-06-19T09:23:29.981Z,72.20
2018-06-19T09:25:58.626Z,72.80
2018-06-19T09:28:27.745Z,72.90
2018-06-19T09:30:56.300Z,73.40
2018-06-19T09:33:24.798Z,73.50
2018-06-19T09:35:53.304Z,73.10
2018-06-19T09:38:21.787Z,73.50
2018-06-19T09:40:50.345Z,73.20
2018-06-19T09:43:18.860Z,73.90
2018-06-19T09:45:47.511Z,73.00
2018-06-19T09:48:16.032Z,72.30
2018-06-19T09:50:44.681Z,71.50
2018-06-19T09:53:13.205Z,72.40
2018-06-19T09:55:41.781Z,72.70
2018-06-19T09:58:10.392Z,73.20
2018-06-19T10:00:41.770Z,74.20
2018-06-19T10:03:10.892Z,73.30
2018-06-19T10:05:39.400Z,73.60
2018-06-19T10:08:07.855Z,74.50
2018-06-19T10:10:36.680Z,75.70
2018-06-19T10:13:05.317Z,74.50
2018-06-19T10:15:33.846Z,75.20
2018-06-19T10:18:02.336Z,75.30
2018-06-19T10:20:30.872Z,76.60
2018-06-19T10:22:59.910Z,76.10
2018-06-19T10:25:28.398Z,75.40
2018-06-19T10:27:56.965Z,75.70
2018-06-19T10:30:25.472Z,75.90
2018-06-19T10:32:54.000Z,75.40
2018-06-19T10:35:22.502Z,75.80
2018-06-19T10:37:51.781Z,76.20
2018-06-19T10:40:20.345Z,76.60
2018-06-19T10:42:48.795Z,77.10
2018-06-19T10:45:17.395Z,77.30
2018-06-19T10:47:46.535Z,76.60
2018-06-19T10:50:15.164Z,75.40
2018-06-19T10:52:44.210Z,74.00
2018-06-19T10:55:12.739Z,73.00
2018-06-19T10:57:41.211Z,73.20
2018-06-19T11:00:10.434Z,73.10
2018-06-19T11:02:38.953Z,72.10
2018-06-19T11:05:07.505Z,73.30
2018-06-19T11:07:36.089Z,72.20
2018-06-19T11:10:04.829Z,71.60
2018-06-19T11:12:34.349Z,70.80
2018-06-19T11:15:03.022Z,70.00
2018-06-19T11:17:31.536Z,68.90
2018-06-19T11:20:00.128Z,69.10
2018-06-19T11:22:28.822Z,68.50
2018-06-19T11:24:57.337Z,68.20
2018-06-19T11:27:25.901Z,67.10
2018-06-19T11:29:54.505Z,66.80
2018-06-19T11:32:23.054Z,65.70
2018-06-19T11:34:51.601Z,65.50
2018-06-19T11:37:20.149Z,65.10
2018-06-19T11:39:48.638Z,64.10
2018-06-19T11:42:17.135Z,63.20
2018-06-19T11:44:45.771Z,62.90
2018-06-19T11:47:14.283Z,62.60
2018-06-19T11:49:43.588Z,63.70
2018-06-19T11:52:12.168Z,63.80
2018-06-19T11:54:40.763Z,64.70
2018-06-19T11:57:09.299Z,64.00
2018-06-19T11:59:37.947Z,64.00
2018-06-19T12:02:06.514Z,64.70
2018-06-19T12:04:35.057Z,65.40
2018-06-19T12:07:04.278Z,66.00
2018-06-19T12:09:32.758Z,65.90
2018-06-19T12:12:01.364Z,65.40
2018-06-19T12:14:29.917Z,66.50
2018-06-19T12:16:58.416Z,67.00
2018-06-19T12:19:27.016Z,68.10
2018-06-19T12:21:55.588Z,69.90
2018-06-19T12:24:24.210Z,71.40
2018-06-19T12:26:52.733Z,71.60
2018-06-19T12:29:21.287Z,70.30
2018-06-19T12:31:49.795Z,69.10
2018-06-19T12:34:18.420Z,69.00
2018-06-19T12:36:46.934Z,68.30
2018-06-19T12:39:15.432Z,66.80
2018-06-19T12:41:47.934Z,66.90
2018-06-19T12:44:16.474Z,66.20
2018-06-19T12:46:46.171Z,66.70
2018-06-19T12:49:14.952Z,65.90
2018-06-19T12:51:57.420Z,64.50
2018-06-19T12:55:21.452Z,63.40
2018-06-19T12:57:50.262Z,63.20
2018-06-19T13:00:18.784Z,65.00
2018-06-19T13:02:59.118Z,65.00
2018-06-19T13:05:38.773Z,65.30
2018-06-19T13:08:07.310Z,65.40
2018-06-19T13:10:35.990Z,63.90
2018-06-19T13:13:25.878Z,64.30
2018-06-19T13:15:55.012Z,64.10
2018-06-19T13:18:35.980Z,63.80
2018-06-19T13:21:04.576Z,63.20
2018-06-19T13:23:33.355Z,64.10
2018-06-19T13:26:02.039Z,63.50
2018-06-19T13:28:41.918Z,64.20
2018-06-19T13:31:22.256Z,64.20
2018-06-19T13:33:50.790Z,63.80
2018-06-19T13:36:19.550Z,62.60
2018-06-19T13:38:48.713Z,62.60
2018-06-19T13:41:29.618Z,61.40
2018-06-19T13:44:13.032Z,60.00
2018-06-19T13:46:42.183Z,59.50
2018-06-19T13:49:19.914Z,58.10
2018-06-19T13:51:54.218Z,57.70
2018-06-19T13:54:33.289Z,58.20
2018-06-19T13:57:35.024Z,57.80
2018-06-19T14:00:16.335Z,58.40
2018-06-19T14:02:47.613Z,59.70
2018-06-19T14:05:18.702Z,60.90
2018-06-19T14:08:13.440Z,62.90
2018-06-19T14:10:53.546Z,62.10
2018-06-19T14:13:22.939Z,62.40
2018-06-19T14:15:51.573Z,63.80
2018-06-19T14:18:21.959Z,64.90
2018-06-19T14:20:50.594Z,65.90
2018-06-19T14:23:19.165Z,66.40
2018-06-19T14:25:48.610Z,65.80
2018-06-19T14:28:18.244Z,65.00
2018-06-19T14:30:47.979Z,65.30
2018-06-19T14:33:16.850Z,65.70
2018-06-19T14:35:45.624Z,66.40
2018-06-19T14:38:15.158Z,67.00
2018-06-19T14:40:43.713Z,67.50
2018-06-19T14:43:12.261Z,67.70
2018-06-19T14:45:41.926Z,68.50
2018-06-19T14:48:11.654Z,69.50
2018-06-19T14:50:40.197Z,70.50
2018-06-19T14:53:09.208Z,72.10
2018-06-19T14:55:38.700Z,72.20
2018-06-19T14:58:07.252Z,73.40
2018-06-19T15:00:36.633Z,75.40
2018-06-19T15:03:05.517Z,76.40
2018-06-19T15:05:34.344Z,77.90
2018-06-19T15:08:02.873Z,78.40
2018-06-19T15:10:31.446Z,78.50
2018-06-19T15:13:00.609Z,77.30
2018-06-19T15:15:29.430Z,76.60
2018-06-19T15:17:58.351Z,76.10
2018-06-19T15:20:27.256Z,75.50
2018-06-19T15:22:55.823Z,74.40
2018-06-19T15:25:25.061Z,73.40
2018-06-19T15:27:53.971Z,72.20
2018-06-19T15:30:22.797Z,71.80
2018-06-19T15:32:52.599Z,71.80
2018-06-19T15:35:22.044Z,71.40
2018-06-19T15:37:51.048Z,71.00
2018-06-19T15:40:23.966Z,71.10
2018-06-19T15:42:52.543Z,70.50
2018-06-19T15:45:21.076Z,70.50
2018-06-19T15:47:49.631Z,70.70
2018-06-19T15:50:18.353Z,70.80
2018-06-19T15:52:47.200Z,71.60
2018-06-19T15:55:15.746Z,72.20
2018-06-19T15:57:44.558Z,72.60
2018-06-19T16:00:13.102Z,73.60
2018-06-19T16:02:42.504Z,72.90
2018-06-19T16:05:11.096Z,73.10
2018-06-19T16:08:42.962Z,73.70
2018-06-19T16:11:11.916Z,73.50
2018-06-19T16:13:40.729Z,73.10
2018-06-19T16:16:09.328Z,72.70
2018-06-19T16:18:37.947Z,73.30
2018-06-19T16:21:07.082Z,72.80
2018-06-19T16:23:35.626Z,73.60
2018-06-19T16:26:04.209Z,75.00
2018-06-19T16:28:33.005Z,76.30
2018-06-19T16:31:01.833Z,78.20
2018-06-19T16:33:30.367Z,80.50
2018-06-19T16:35:58.919Z,83.10
2018-06-19T16:38:27.464Z,85.20
2018-06-19T16:40:55.977Z,86.80
2018-06-19T16:43:25.200Z,90.60
2018-06-19T16:45:54.443Z,90.60
2018-06-19T16:48:23.154Z,90.90
2018-06-19T16:50:52.045Z,90.90
2018-06-19T16:53:20.745Z,91.10
2018-06-19T16:55:49.281Z,90.80
2018-06-19T16:58:17.800Z,91.60
2018-06-19T17:00:46.463Z,91.70
2018-06-19T17:03:15.193Z,91.00
2018-06-19T17:05:43.890Z,90.70
2018-06-19T17:08:12.427Z,90.40
2018-06-19T17:10:40.952Z,90.70
2018-06-19T17:13:09.553Z,90.10
2018-06-19T17:15:38.065Z,89.70
2018-06-19T17:18:06.630Z,88.80
2018-06-19T17:20:35.424Z,88.30
2018-06-19T17:23:03.968Z,87.60
2018-06-19T17:25:32.527Z,86.50
2018-06-19T17:28:01.132Z,86.60
2018-06-19T17:30:29.734Z,87.10
2018-06-19T17:32:58.262Z,87.50
2018-06-19T17:35:27.128Z,87.60
2018-06-19T17:37:55.708Z,88.00
2018-06-19T17:40:24.765Z,88.50
2018-06-19T17:42:53.440Z,88.70
2018-06-19T17:45:22.230Z,89.10
2018-06-19T17:47:50.815Z,89.10
2018-06-19T17:50:20.090Z,89.60
2018-06-19T17:52:48.622Z,89.70
2018-06-19T17:55:17.609Z,90.60
2018-06-19T17:57:46.152Z,90.70
2018-06-19T18:00:14.791Z,90.50
2018-06-19T18:02:43.354Z,90.50
2018-06-19T18:05:11.948Z,90.50
2018-06-19T18:07:40.522Z,90.90
2018-06-19T18:10:09.406Z,91.20
2018-06-19T18:12:37.952Z,91.40
2018-06-19T18:17:34.750Z,92.30
2018-06-19T18:20:03.354Z,92.60
2018-06-19T18:22:31.899Z,93.00
2018-06-19T18:25:00.617Z,93.20
2018-06-19T18:27:29.241Z,93.40
2018-06-19T18:29:57.771Z,93.60
2018-06-19T18:32:26.951Z,93.70
2018-06-19T18:34:55.657Z,93.60
2018-06-19T18:37:24.235Z,93.70
2018-06-19T18:39:52.832Z,93.80
2018-06-19T18:42:21.377Z,93.90
2018-06-19T18:44:49.973Z,94.00
2018-06-19T18:47:18.594Z,94.00
2018-06-19T18:49:47.176Z,93.90
2018-06-19T18:52:16.025Z,93.80
2018-06-19T18:54:44.624Z,93.70
2018-06-19T18:57:13.214Z,93.70
2018-06-19T18:59:41.742Z,93.70
2018-06-19T19:02:10.395Z,93.80
2018-06-19T19:04:39.310Z,93.50
2018-06-19T19:07:07.888Z,93.30
2018-06-19T19:09:36.510Z,93.30
2018-06-19T19:12:05.047Z,93.50
2018-06-19T19:14:38.821Z,93.40
2018-06-19T19:17:13.024Z,93.30
2018-06-19T19:19:41.703Z,93.10
2018-06-19T19:22:10.332Z,93.50
2018-06-19T19:24:38.941Z,94.10
2018-06-19T19:27:12.628Z,93.50
2018-06-19T19:29:46.354Z,93.60
2018-06-19T19:32:14.939Z,93.90
2018-06-19T19:34:44.023Z,94.10
2018-06-19T19:37:18.003Z,94.50
2018-06-19T19:39:47.153Z,94.80
2018-06-19T19:42:15.728Z,94.90
2018-06-19T19:44:44.268Z,94.90
2018-06-19T19:47:18.979Z,95.10
2018-06-19T19:49:47.495Z,95.20
2018-06-19T19:52:16.066Z,95.20
2018-06-19T19:54:44.623Z,95.60
2018-06-19T19:57:18.379Z,95.60
2018-06-19T19:59:46.978Z,95.70
2018-06-19T20:02:15.493Z,95.80
2018-06-19T20:04:44.174Z,96.00
2018-06-19T20:07:12.792Z,96.20
2018-06-19T20:09:41.380Z,96.20
2018-06-19T20:12:10.755Z,96.20
2018-06-19T20:14:39.294Z,96.20
2018-06-19T20:17:07.891Z,96.40
2018-06-19T20:19:36.451Z,96.40
2018-06-19T20:22:05.085Z,96.50
2018-06-19T20:24:33.608Z,96.80
2018-06-19T20:27:02.542Z,96.90
2018-06-19T20:29:31.102Z,97.10
2018-06-19T20:31:59.643Z,97.30
2018-06-19T20:34:28.214Z,97.40
2018-06-19T20:36:56.762Z,97.60
2018-06-19T20:39:25.318Z,97.80
2018-06-19T20:41:53.869Z,97.90
2018-06-19T20:44:22.435Z,98.10
2018-06-19T20:46:50.988Z,98.30
2018-06-19T20:49:19.550Z,98.40
2018-06-19T20:51:48.054Z,98.30
2018-06-19T20:54:16.680Z,98.30
2018-06-19T20:56:45.185Z,98.30
2018-06-19T20:59:13.777Z,98.30
2018-06-19T21:01:42.306Z,98.30
2018-06-19T21:04:10.908Z,98.20
2018-06-19T21:06:40.076Z,98.30
2018-06-19T21:09:08.840Z,98.40
2018-06-19T21:11:37.951Z,98.40
2018-06-19T21:14:06.448Z,98.40
2018-06-19T21:16:35.145Z,98.40
2018-06-19T21:19:05.517Z,98.50
2018-06-19T21:21:34.074Z,98.60
2018-06-19T21:24:02.622Z,98.60
2018-06-19T21:26:31.204Z,98.70
2018-06-19T21:28:59.792Z,98.70
2018-06-19T21:31:28.397Z,98.70
2018-06-19T21:33:57.103Z,98.70
2018-06-19T21:36:26.283Z,98.60
2018-06-19T21:38:55.141Z,98.70
2018-06-19T21:41:27.021Z,98.70
2018-06-19T21:43:56.062Z,98.80
2018-06-19T21:46:24.631Z,98.70
2018-06-19T21:48:53.235Z,98.70
2018-06-19T21:51:21.784Z,98.80
2018-06-19T21:53:50.371Z,99.00
2018-06-19T21:56:18.923Z,98.80
2018-06-19T21:58:47.513Z,98.80
2018-06-19T22:01:16.046Z,98.70
2018-06-19T22:03:44.809Z,98.80
2018-06-19T22:06:13.359Z,98.80
2018-06-19T22:08:43.935Z,98.90
2018-06-19T22:11:13.236Z,98.90
2018-06-19T22:13:41.841Z,99.10
2018-06-19T22:16:10.321Z,98.90
2018-06-19T22:18:38.871Z,99.30
2018-06-19T22:21:07.471Z,98.80
2018-06-19T22:23:36.040Z,98.90
2018-06-19T22:26:04.768Z,98.90
2018-06-19T22:28:33.524Z,98.70
2018-06-19T22:31:02.074Z,98.80
2018-06-19T22:33:30.618Z,98.80
2018-06-19T22:35:59.129Z,98.90
2018-06-19T22:38:28.051Z,98.80
2018-06-19T22:40:56.549Z,99.00
2018-06-19T22:43:25.026Z,99.10
2018-06-19T22:45:53.562Z,99.10
2018-06-19T22:48:22.290Z,99.10
2018-06-19T22:50:50.875Z,99.20
2018-06-19T22:53:19.462Z,99.10
2018-06-19T22:55:48.027Z,99.00
2018-06-19T22:58:16.525Z,98.90
2018-06-19T23:00:45.047Z,98.90
2018-06-19T23:03:13.661Z,99.00
2018-06-19T23:05:42.150Z,98.80
2018-06-19T23:08:10.748Z,98.80
2018-06-19T23:10:39.262Z,98.40
2018-06-19T23:13:07.749Z,98.00
2018-06-19T23:15:36.254Z,97.90
2018-06-19T23:18:05.017Z,97.80
2018-06-19T23:20:33.886Z,97.50
2018-06-19T23:23:02.528Z,97.30
2018-06-19T23:25:31.038Z,97.30
2018-06-19T23:27:59.575Z,97.20
2018-06-19T23:30:28.326Z,97.20
2018-06-19T23:32:56.859Z,97.20
2018-06-19T23:35:25.418Z,97.30
2018-06-19T23:37:53.942Z,97.40
2018-06-19T23:40:22.472Z,97.60
2018-06-19T23:42:53.117Z,97.70
2018-06-19T23:45:21.696Z,97.70
2018-06-19T23:47:50.939Z,97.90
2018-06-19T23:50:19.518Z,98.20
2018-06-19T23:52:49.054Z,98.40
2018-06-19T23:55:17.768Z,98.60
2018-06-19T23:57:46.829Z,98.60
